createdAt,value
2022-08-03T00:00:24.207Z,97258.88
2022-08-03T00:02:50.926Z,97267.91
2022-08-03T00:05:17.622Z,97263.63
2022-08-03T00:07:44.218Z,97265.47
2022-08-03T00:10:11.302Z,97255.25
2022-08-03T00:12:37.879Z,97251.88
2022-08-03T00:15:08.243Z,97257.84
2022-08-03T00:17:52.960Z,97245.78
2022-08-03T00:20:21.780Z,97247.56
2022-08-03T00:22:48.895Z,97237.88
2022-08-03T00:25:15.707Z,97244.22
2022-08-03T00:27:42.292Z,97238.09
2022-08-03T00:30:09.204Z,97240.75
2022-08-03T00:32:35.751Z,97231.72
2022-08-03T00:35:04.369Z,97236.69
2022-08-03T00:37:41.443Z,97231.41
2022-08-03T00:40:11.120Z,97224.91
2022-08-03T00:42:50.747Z,97231.72
2022-08-03T00:45:39.662Z,97233.63
2022-08-03T00:48:29.440Z,97230.34
2022-08-03T00:50:55.100Z,97229.53
2022-08-03T00:53:21.919Z,97221.78
2022-08-03T00:55:48.459Z,97232.19
2022-08-03T00:58:15.192Z,97225.91
2022-08-03T01:00:42.337Z,97229.59
2022-08-03T01:03:10.386Z,97225.75
2022-08-03T01:05:55.702Z,97241.13
2022-08-03T01:08:47.849Z,97224.78
2022-08-03T01:11:35.634Z,97225.84
2022-08-03T01:14:32.955Z,97231.97
2022-08-03T01:17:06.941Z,97217.63
2022-08-03T01:19:54.625Z,97224.59
2022-08-03T01:22:37.419Z,97222.88
2022-08-03T01:25:04.041Z,97222.47
2022-08-03T01:27:48.610Z,97220.84
2022-08-03T01:30:15.315Z,97221.28
2022-08-03T01:32:59.744Z,97202.88
2022-08-03T01:35:47.675Z,97204.50
2022-08-03T01:38:27.748Z,97208.13
2022-08-03T01:40:56.330Z,97212.69
2022-08-03T01:44:26.218Z,97216.03
2022-08-03T01:46:14.685Z,97212.31
2022-08-03T01:48:43.059Z,97201.34
2022-08-03T01:51:10.694Z,97212.25
2022-08-03T01:53:38.944Z,97200.69
2022-08-03T01:56:06.628Z,97203.19
2022-08-03T01:58:35.462Z,97209.31
2022-08-03T02:01:03.043Z,97203.78
2022-08-03T02:03:30.031Z,97204.00
2022-08-03T02:06:55.572Z,97201.31
2022-08-03T02:08:45.048Z,97206.00
2022-08-03T02:11:12.577Z,97208.50
2022-08-03T02:13:39.675Z,97201.53
2022-08-03T02:16:07.305Z,97206.69
2022-08-03T02:18:34.275Z,97205.28
2022-08-03T02:21:11.114Z,97210.78
2022-08-03T02:23:38.387Z,97204.66
2022-08-03T02:26:07.399Z,97204.06
2022-08-03T02:28:40.098Z,97207.72
2022-08-03T02:31:13.109Z,97213.25
2022-08-03T02:33:44.265Z,97209.78
2022-08-03T02:36:12.008Z,97208.13
2022-08-03T02:38:41.847Z,97201.63
2022-08-03T02:41:16.947Z,97206.94
2022-08-03T02:44:05.595Z,97201.03
2022-08-03T02:46:34.431Z,97195.50
2022-08-03T02:49:40.995Z,97209.81
2022-08-03T02:51:50.872Z,97196.94
2022-08-03T02:54:19.364Z,97193.09
2022-08-03T02:56:47.269Z,97206.41
2022-08-03T02:59:14.771Z,97199.44
2022-08-03T03:01:41.817Z,97197.22
2022-08-03T03:04:10.114Z,97191.50
2022-08-03T03:06:40.163Z,97198.63
2022-08-03T03:09:07.231Z,97198.63
2022-08-03T03:11:36.502Z,97194.75
2022-08-03T03:14:03.389Z,97200.03
2022-08-03T03:16:30.762Z,97196.75
2022-08-03T03:18:57.611Z,97192.28
2022-08-03T03:21:24.291Z,97198.88
2022-08-03T03:23:51.055Z,97197.88
2022-08-03T03:26:18.046Z,97201.34
2022-08-03T03:28:44.993Z,97201.78
2022-08-03T03:31:11.665Z,97187.09
2022-08-03T03:33:38.662Z,97207.94
2022-08-03T03:36:06.478Z,97199.34
2022-08-03T03:38:33.412Z,97198.97
2022-08-03T03:41:00.216Z,97198.53
2022-08-03T03:43:27.026Z,97198.97
2022-08-03T03:45:54.995Z,97200.81
2022-08-03T03:48:21.830Z,97200.19
2022-08-03T03:50:49.591Z,97197.75
2022-08-03T03:53:16.240Z,97203.69
2022-08-03T03:55:58.925Z,97202.28
2022-08-03T03:58:28.803Z,97201.25
2022-08-03T04:00:55.457Z,97192.47
2022-08-03T04:03:22.141Z,97190.84
2022-08-03T04:06:07.225Z,97201.03
2022-08-03T04:08:52.452Z,97206.34
2022-08-03T04:11:31.720Z,97198.97
2022-08-03T04:14:07.940Z,97204.28
2022-08-03T04:16:39.724Z,97204.06
2022-08-03T04:19:11.477Z,97201.63
2022-08-03T04:21:41.727Z,97200.59
2022-08-03T04:24:09.579Z,97196.09
2022-08-03T04:26:37.686Z,97199.34
2022-08-03T04:29:06.310Z,97194.03
2022-08-03T04:31:33.766Z,97208.78
2022-08-03T04:34:00.578Z,97206.72
2022-08-03T04:36:32.155Z,97205.31
2022-08-03T04:39:06.974Z,97197.94
2022-08-03T04:42:07.417Z,97201.81
2022-08-03T04:44:28.486Z,97208.78
2022-08-03T04:46:56.506Z,97213.66
2022-08-03T04:49:23.170Z,97209.97
2022-08-03T04:51:50.338Z,97210.56
2022-08-03T04:54:16.954Z,97204.63
2022-08-03T04:56:43.820Z,97196.41
2022-08-03T04:59:10.964Z,97209.47
2022-08-03T05:01:37.651Z,97195.38
2022-08-03T05:04:04.396Z,97208.41
2022-08-03T05:06:30.943Z,97203.25
2022-08-03T05:08:57.456Z,97213.06
2022-08-03T05:11:24.003Z,97215.50
2022-08-03T05:13:50.641Z,97205.66
2022-08-03T05:16:17.236Z,97211.16
2022-08-03T05:18:44.204Z,97206.44
2022-08-03T05:21:14.062Z,97208.03
2022-08-03T05:23:41.419Z,97223.06
2022-08-03T05:26:08.013Z,97221.19
2022-08-03T05:28:34.563Z,97217.44
2022-08-03T05:31:01.111Z,97210.78
2022-08-03T05:33:27.675Z,97214.16
2022-08-03T05:36:02.595Z,97211.25
2022-08-03T05:38:35.024Z,97206.81
2022-08-03T05:41:23.511Z,97211.00
2022-08-03T05:43:53.692Z,97217.97
2022-08-03T05:46:21.176Z,97210.88
2022-08-03T05:48:48.108Z,97201.69
2022-08-03T05:51:14.861Z,97206.44
2022-08-03T05:53:42.793Z,97199.34
2022-08-03T05:56:14.203Z,97207.22
2022-08-03T05:58:47.254Z,97214.66
2022-08-03T06:01:15.133Z,97208.66
2022-08-03T06:03:41.932Z,97212.53
2022-08-03T06:06:08.574Z,97216.78
2022-08-03T06:08:35.547Z,97204.41
2022-08-03T06:11:02.149Z,97215.06
2022-08-03T06:13:28.840Z,97216.38
2022-08-03T06:15:55.388Z,97216.00
2022-08-03T06:18:21.981Z,97212.28
2022-08-03T06:20:49.421Z,97215.78
2022-08-03T06:23:18.086Z,97203.06
2022-08-03T06:25:45.567Z,97201.09
2022-08-03T06:28:35.280Z,97205.63
2022-08-03T06:31:01.010Z,97212.94
2022-08-03T06:34:31.577Z,97209.88
2022-08-03T06:36:14.380Z,97206.44
2022-08-03T06:38:40.946Z,97204.84
2022-08-03T06:41:07.466Z,97209.75
2022-08-03T06:43:37.772Z,97207.09
2022-08-03T06:46:05.494Z,97214.09
2022-08-03T06:48:32.457Z,97211.56
2022-08-03T06:50:59.224Z,97219.53
2022-08-03T06:53:25.878Z,97200.03
2022-08-03T06:55:54.944Z,97217.72
2022-08-03T06:58:22.097Z,97215.25
2022-08-03T07:00:48.658Z,97209.44
2022-08-03T07:03:15.238Z,97218.66
2022-08-03T07:05:42.998Z,97210.13
2022-08-03T07:08:10.042Z,97218.34
2022-08-03T07:10:37.001Z,97211.91
2022-08-03T07:13:04.076Z,97205.44
2022-08-03T07:15:38.301Z,97216.00
2022-08-03T07:18:17.722Z,97215.72
2022-08-03T07:20:55.390Z,97211.09
2022-08-03T07:23:21.933Z,97218.63
2022-08-03T07:25:48.455Z,97206.19
2022-08-03T07:28:15.401Z,97217.41
2022-08-03T07:30:41.949Z,97223.56
2022-08-03T07:33:08.499Z,97219.38
2022-08-03T07:35:35.100Z,97211.97
2022-08-03T07:38:01.668Z,97213.34
2022-08-03T07:40:31.630Z,97212.16
2022-08-03T07:42:58.924Z,97207.47
2022-08-03T07:45:26.600Z,97217.38
2022-08-03T07:47:54.113Z,97213.13
2022-08-03T07:50:21.373Z,97215.09
2022-08-03T07:52:48.197Z,97217.00
2022-08-03T07:55:18.229Z,97217.69
2022-08-03T07:57:44.842Z,97213.13
2022-08-03T08:00:17.362Z,97215.63
2022-08-03T08:02:44.441Z,97218.59
2022-08-03T08:05:12.513Z,97219.59
2022-08-03T08:07:39.570Z,97211.31
2022-08-03T08:10:07.871Z,97222.78
2022-08-03T08:12:34.460Z,97218.44
2022-08-03T08:15:01.259Z,97215.88
2022-08-03T08:17:27.809Z,97216.78
2022-08-03T08:19:54.386Z,97205.38
2022-08-03T08:22:29.791Z,97216.75
2022-08-03T08:24:58.185Z,97212.38
2022-08-03T08:27:24.771Z,97202.34
2022-08-03T08:29:55.193Z,97207.19
2022-08-03T08:32:24.243Z,97212.94
2022-08-03T08:34:51.044Z,97212.34
2022-08-03T08:37:17.713Z,97213.13
2022-08-03T08:39:44.273Z,97205.06
2022-08-03T08:42:10.883Z,97207.78
2022-08-03T08:44:37.450Z,97207.06
2022-08-03T08:47:04.749Z,97207.19
2022-08-03T08:49:33.037Z,97211.63
2022-08-03T08:52:01.103Z,97218.03
2022-08-03T08:54:29.928Z,97222.78
2022-08-03T08:56:57.507Z,97221.28
2022-08-03T08:59:24.472Z,97215.03
2022-08-03T09:01:51.041Z,97220.00
2022-08-03T09:04:17.887Z,97211.25
2022-08-03T09:06:58.576Z,97214.94
2022-08-03T09:10:10.745Z,97206.97
2022-08-03T09:12:40.611Z,97213.28
2022-08-03T09:15:25.504Z,97221.03
2022-08-03T09:17:55.594Z,97213.78
2022-08-03T09:20:24.480Z,97213.69
2022-08-03T09:22:59.916Z,97209.06
2022-08-03T09:25:30.835Z,97216.63
2022-08-03T09:28:06.637Z,97204.16
2022-08-03T09:30:35.102Z,97198.56
2022-08-03T09:33:06.607Z,97215.41
2022-08-03T09:38:26.370Z,97205.75
2022-08-03T09:40:59.012Z,97203.78
2022-08-03T09:43:27.655Z,97204.53
2022-08-03T09:46:03.772Z,97203.84
2022-08-03T09:48:31.714Z,97208.41
2022-08-03T09:51:12.485Z,97193.03
2022-08-03T09:53:58.471Z,97200.75
2022-08-03T09:56:40.312Z,97191.19
2022-08-03T09:59:07.007Z,97205.84
2022-08-03T10:01:35.260Z,97202.59
2022-08-03T10:04:03.900Z,97210.94
2022-08-03T10:06:31.199Z,97201.78
2022-08-03T10:09:10.676Z,97203.16
2022-08-03T10:11:41.799Z,97198.84
2022-08-03T10:14:11.197Z,97196.88
2022-08-03T10:16:39.917Z,97196.47
2022-08-03T10:19:08.125Z,97188.31
2022-08-03T10:21:36.124Z,97200.34
2022-08-03T10:24:05.583Z,97199.22
2022-08-03T10:26:36.941Z,97192.34
2022-08-03T10:29:12.910Z,97189.56
2022-08-03T10:31:57.874Z,97187.63
2022-08-03T10:34:27.225Z,97176.56
2022-08-03T10:36:57.416Z,97175.22
2022-08-03T10:39:28.206Z,97174.03
2022-08-03T10:41:56.734Z,97179.00
2022-08-03T10:44:24.812Z,97178.50
2022-08-03T10:46:51.631Z,97160.28
2022-08-03T10:49:33.595Z,97161.88
2022-08-03T10:52:02.618Z,97164.25
2022-08-03T10:55:03.231Z,97152.72
2022-08-03T10:57:47.437Z,97163.44
2022-08-03T11:00:24.554Z,97156.31
2022-08-03T11:03:08.673Z,97145.91
2022-08-03T11:05:45.741Z,97137.56
2022-08-03T11:08:28.033Z,97136.13
2022-08-03T11:11:00.397Z,97147.53
2022-08-03T11:13:30.912Z,97140.03
2022-08-03T11:16:02.992Z,97145.16
2022-08-03T11:18:31.536Z,97135.09
2022-08-03T11:20:59.913Z,97143.38
2022-08-03T11:24:04.463Z,97129.63
2022-08-03T11:26:33.410Z,97135.50
2022-08-03T11:29:27.378Z,97138.94
2022-08-03T11:31:54.009Z,97138.91
2022-08-03T11:34:20.658Z,97134.72
2022-08-03T11:37:19.806Z,97143.03
2022-08-03T11:39:47.126Z,97132.34
2022-08-03T11:42:22.910Z,97134.47
2022-08-03T11:44:54.031Z,97140.25
2022-08-03T11:47:21.754Z,97131.38
2022-08-03T11:49:49.351Z,97130.41
2022-08-03T11:52:17.428Z,97135.56
2022-08-03T11:54:44.281Z,97135.00
2022-08-03T11:57:10.888Z,97140.06
2022-08-03T11:59:38.838Z,97130.41
2022-08-03T12:02:12.466Z,97126.47
2022-08-03T12:04:52.135Z,97135.75
2022-08-03T12:08:02.214Z,97130.13
2022-08-03T12:10:11.997Z,97129.56
2022-08-03T12:12:43.300Z,97133.97
2022-08-03T12:15:13.085Z,97129.38
2022-08-03T12:17:41.303Z,97125.03
2022-08-03T12:20:09.961Z,97122.19
2022-08-03T12:22:40.447Z,97126.09
2022-08-03T12:25:08.745Z,97124.91
2022-08-03T12:27:35.966Z,97135.53
2022-08-03T12:30:04.018Z,97131.00
2022-08-03T12:32:31.150Z,97119.25
2022-08-03T12:35:01.653Z,97116.28
2022-08-03T12:37:29.273Z,97122.13
2022-08-03T12:40:09.146Z,97120.59
2022-08-03T12:42:38.615Z,97126.81
2022-08-03T12:45:21.554Z,97126.22
2022-08-03T12:47:59.374Z,97117.50
2022-08-03T12:50:32.809Z,97121.31
2022-08-03T12:53:00.909Z,97124.75
2022-08-03T12:55:57.560Z,97124.97
2022-08-03T12:58:35.182Z,97129.31
2022-08-03T13:01:05.258Z,97129.41
2022-08-03T13:03:49.612Z,97120.22
2022-08-03T13:06:19.610Z,97127.59
2022-08-03T13:08:48.277Z,97115.50
2022-08-03T13:11:52.532Z,97128.31
2022-08-03T13:14:10.619Z,97122.97
2022-08-03T13:16:43.288Z,97115.06
2022-08-03T13:19:15.620Z,97125.22
2022-08-03T13:21:53.524Z,97120.19
2022-08-03T13:24:30.542Z,97119.00
2022-08-03T13:26:58.753Z,97118.53
2022-08-03T13:29:25.294Z,97116.84
2022-08-03T13:31:51.878Z,97115.41
2022-08-03T13:34:22.901Z,97110.22
2022-08-03T13:39:57.327Z,97111.69
2022-08-03T13:42:25.625Z,97098.75
2022-08-03T13:44:52.287Z,97101.34
2022-08-03T13:47:19.427Z,97090.50
2022-08-03T13:49:54.210Z,97092.19
2022-08-03T13:52:29.934Z,97095.75
2022-08-03T13:54:56.501Z,97085.47
2022-08-03T13:58:03.346Z,97081.06
2022-08-03T14:00:10.371Z,97084.91
2022-08-03T14:02:37.206Z,97085.44
2022-08-03T14:05:03.990Z,97088.19
2022-08-03T14:07:30.584Z,97086.19
2022-08-03T14:09:57.121Z,97086.09
2022-08-03T14:12:23.775Z,97087.41
2022-08-03T14:14:50.309Z,97089.75
2022-08-03T14:17:16.985Z,97082.38
2022-08-03T14:19:53.324Z,97075.97
2022-08-03T14:22:21.455Z,97061.06
2022-08-03T14:24:49.157Z,97071.94
2022-08-03T14:27:16.408Z,97074.22
2022-08-03T14:29:42.987Z,97078.69
2022-08-03T14:32:13.180Z,97076.84
2022-08-03T14:34:40.975Z,97074.88
2022-08-03T14:37:07.996Z,97068.03
2022-08-03T14:42:21.614Z,97068.72
2022-08-03T14:44:48.237Z,97060.50
2022-08-03T14:47:14.900Z,97063.00
2022-08-03T14:50:37.374Z,97062.56
2022-08-03T14:52:28.616Z,97051.25
2022-08-03T14:54:55.203Z,97049.75
2022-08-03T14:57:22.020Z,97060.72
2022-08-03T14:59:56.208Z,97046.09
2022-08-03T15:02:24.515Z,97045.78
2022-08-03T15:04:51.494Z,97049.44
2022-08-03T15:07:18.649Z,97042.03
2022-08-03T15:09:45.406Z,97041.09
2022-08-03T15:12:12.039Z,97034.53
2022-08-03T15:14:38.761Z,97042.59
2022-08-03T15:17:05.538Z,97033.28
2022-08-03T15:20:00.774Z,97038.47
2022-08-03T15:22:20.696Z,97035.72
2022-08-03T15:24:51.745Z,97030.84
2022-08-03T15:27:18.683Z,97029.91
2022-08-03T15:30:05.795Z,97027.22
2022-08-03T15:32:35.444Z,97022.59
2022-08-03T15:35:02.266Z,97032.81
2022-08-03T15:37:28.999Z,97028.63
2022-08-03T15:39:59.938Z,97037.00
2022-08-03T15:42:29.214Z,97032.06
2022-08-03T15:44:55.777Z,97028.22
2022-08-03T15:47:22.578Z,97030.56
2022-08-03T15:49:49.369Z,97032.19
2022-08-03T15:52:17.111Z,97034.59
2022-08-03T15:54:43.762Z,97029.09
2022-08-03T15:57:10.311Z,97028.59
2022-08-03T15:59:37.041Z,97023.88
2022-08-03T16:02:04.131Z,97016.66
2022-08-03T16:04:30.791Z,97020.97
2022-08-03T16:06:57.310Z,97021.47
2022-08-03T16:09:43.045Z,97023.09
2022-08-03T16:12:11.862Z,97017.78
2022-08-03T16:14:53.480Z,97024.53
2022-08-03T16:17:21.485Z,97018.59
2022-08-03T16:19:48.419Z,97020.19
2022-08-03T16:22:15.010Z,97011.69
2022-08-03T16:24:41.602Z,97016.28
2022-08-03T16:27:17.541Z,97015.75
2022-08-03T16:29:54.884Z,97019.22
2022-08-03T16:32:21.511Z,97017.16
2022-08-03T16:34:48.273Z,97017.44
2022-08-03T16:37:37.686Z,97008.91
2022-08-03T16:40:02.125Z,97002.13
2022-08-03T16:42:28.686Z,97010.19
2022-08-03T16:44:55.256Z,97015.25
2022-08-03T16:47:22.766Z,97011.25
2022-08-03T16:49:54.747Z,97008.31
2022-08-03T16:52:23.459Z,97013.28
2022-08-03T16:54:50.673Z,97005.25
2022-08-03T16:57:58.475Z,97012.94
2022-08-03T17:00:10.522Z,97010.22
2022-08-03T17:02:37.461Z,97012.56
2022-08-03T17:05:04.514Z,97010.44
2022-08-03T17:07:31.041Z,97012.50
2022-08-03T17:09:58.075Z,97015.22
2022-08-03T17:12:27.082Z,97013.38
2022-08-03T17:14:54.335Z,97012.44
2022-08-03T17:17:53.358Z,97012.41
2022-08-03T17:20:19.124Z,97010.63
2022-08-03T17:22:58.475Z,97020.78
2022-08-03T17:25:39.733Z,97014.06
2022-08-03T17:28:48.435Z,97016.78
2022-08-03T17:31:23.122Z,97021.91
2022-08-03T17:34:00.490Z,97019.81
2022-08-03T17:36:47.595Z,97018.69
2022-08-03T17:39:30.793Z,97020.13
2022-08-03T17:42:05.313Z,97019.75
2022-08-03T17:44:52.536Z,97024.78
2022-08-03T17:47:19.957Z,97018.97
2022-08-03T17:49:48.193Z,97019.41
2022-08-03T17:52:24.540Z,97025.81
2022-08-03T17:55:56.580Z,97026.13
2022-08-03T17:58:02.256Z,97030.47
2022-08-03T18:00:51.591Z,97030.28
2022-08-03T18:03:29.242Z,97020.84
2022-08-03T18:06:10.766Z,97028.41
2022-08-03T18:08:45.192Z,97031.88
2022-08-03T18:11:15.210Z,97034.25
2022-08-03T18:14:16.060Z,97021.78
2022-08-03T18:17:06.505Z,97031.44
2022-08-03T18:20:03.399Z,97024.75
2022-08-03T18:22:26.934Z,97027.09
2022-08-03T18:24:54.705Z,97033.19
2022-08-03T18:27:22.865Z,97028.44
2022-08-03T18:29:50.296Z,97025.16
2022-08-03T18:32:18.368Z,97028.34
2022-08-03T18:34:53.652Z,97033.41
2022-08-03T18:37:25.281Z,97029.31
2022-08-03T18:40:11.754Z,97034.03
2022-08-03T18:42:52.950Z,97038.91
2022-08-03T18:45:56.505Z,97032.91
2022-08-03T18:48:11.644Z,97030.66
2022-08-03T18:50:41.043Z,97033.56
2022-08-03T18:53:23.468Z,97032.88
2022-08-03T18:56:34.414Z,97039.19
2022-08-03T18:59:32.385Z,97033.91
2022-08-03T19:02:09.202Z,97038.28
2022-08-03T19:04:41.102Z,97043.22
2022-08-03T19:07:09.529Z,97045.81
2022-08-03T19:09:47.710Z,97047.22
2022-08-03T19:12:27.258Z,97034.59
2022-08-03T19:15:10.608Z,97041.69
2022-08-03T19:17:50.298Z,97044.69
2022-08-03T19:20:30.848Z,97049.59
2022-08-03T19:22:59.409Z,97060.69
2022-08-03T19:25:35.240Z,97060.94
2022-08-03T19:28:14.504Z,97063.16
2022-08-03T19:30:46.306Z,97058.03
2022-08-03T19:33:31.430Z,97067.50
2022-08-03T19:36:18.105Z,97059.44
2022-08-03T19:38:54.709Z,97058.91
2022-08-03T19:41:24.566Z,97068.06
2022-08-03T19:44:00.903Z,97061.06
2022-08-03T19:46:34.795Z,97063.47
2022-08-03T19:49:15.054Z,97071.81
2022-08-03T19:51:58.480Z,97063.19
2022-08-03T19:54:36.704Z,97061.81
2022-08-03T19:57:17.586Z,97061.00
2022-08-03T19:59:50.105Z,97061.00
2022-08-03T20:02:26.265Z,97062.56
2022-08-03T20:04:58.008Z,97068.19
2022-08-03T20:07:28.514Z,97068.97
2022-08-03T20:09:56.506Z,97063.81
2022-08-03T20:12:26.643Z,97071.06
2022-08-03T20:14:58.644Z,97067.78
2022-08-03T20:17:54.728Z,97069.94
2022-08-03T20:20:13.629Z,97065.09
2022-08-03T20:22:45.502Z,97069.84
2022-08-03T20:25:13.175Z,97060.63
2022-08-03T20:28:05.823Z,97064.88
2022-08-03T20:30:35.193Z,97063.28
2022-08-03T20:33:01.790Z,97065.44
2022-08-03T20:35:28.931Z,97070.25
2022-08-03T20:37:55.915Z,97059.97
2022-08-03T20:40:27.370Z,97064.81
2022-08-03T20:42:55.302Z,97073.38
2022-08-03T20:45:59.187Z,97068.72
2022-08-03T20:48:09.897Z,97071.72
2022-08-03T20:50:38.373Z,97065.19
2022-08-03T20:53:06.935Z,97064.09
2022-08-03T20:55:47.740Z,97066.69
2022-08-03T20:58:21.199Z,97069.06
2022-08-03T21:00:51.569Z,97077.09
2022-08-03T21:03:18.889Z,97064.13
2022-08-03T21:05:48.447Z,97068.59
2022-08-03T21:08:21.529Z,97066.38
2022-08-03T21:10:49.310Z,97061.78
2022-08-03T21:13:23.587Z,97061.09
2022-08-03T21:16:03.209Z,97055.84
2022-08-03T21:18:50.776Z,97051.59
2022-08-03T21:21:22.970Z,97050.16
2022-08-03T21:23:52.930Z,97044.00
2022-08-03T21:26:22.729Z,97052.56
2022-08-03T21:28:51.820Z,97050.50
2022-08-03T21:31:25.449Z,97045.63
2022-08-03T21:33:57.852Z,97045.38
2022-08-03T21:36:29.471Z,97045.63
2022-08-03T21:38:57.397Z,97036.47
2022-08-03T21:41:31.435Z,97046.19
2022-08-03T21:43:58.837Z,97038.84
2022-08-03T21:46:27.319Z,97051.91
2022-08-03T21:50:04.434Z,97035.06
2022-08-03T21:51:49.525Z,97044.97
2022-08-03T21:54:20.517Z,97048.88
2022-08-03T21:56:48.121Z,97045.25
2022-08-03T21:59:19.775Z,97051.59
2022-08-03T22:01:49.118Z,97046.19
2022-08-03T22:04:50.651Z,97045.31
2022-08-03T22:07:08.067Z,97047.75
2022-08-03T22:09:36.290Z,97045.88
2022-08-03T22:12:03.477Z,97039.16
2022-08-03T22:14:31.646Z,97042.91
2022-08-03T22:16:58.263Z,97043.63
2022-08-03T22:19:24.927Z,97047.59
2022-08-03T22:21:51.552Z,97043.81
2022-08-03T22:24:19.685Z,97047.56
2022-08-03T22:27:09.737Z,97044.06
2022-08-03T22:29:36.868Z,97048.31
2022-08-03T22:32:04.080Z,97045.28
2022-08-03T22:34:30.736Z,97051.66
2022-08-03T22:37:02.061Z,97060.69
2022-08-03T22:39:29.755Z,97048.25
2022-08-03T22:41:59.800Z,97058.88
2022-08-03T22:44:27.536Z,97055.69
2022-08-03T22:46:54.563Z,97055.44
2022-08-03T22:49:22.258Z,97048.16
2022-08-03T22:51:50.867Z,97043.84
2022-08-03T22:54:17.944Z,97048.66
2022-08-03T22:56:46.739Z,97057.75
2022-08-03T22:59:39.277Z,97053.22
2022-08-03T23:02:19.979Z,97058.25
2022-08-03T23:04:51.980Z,97045.31
2022-08-03T23:07:36.429Z,97042.69
2022-08-03T23:10:06.476Z,97039.53
2022-08-03T23:12:35.473Z,97053.16
2022-08-03T23:15:05.307Z,97054.59
2022-08-03T23:17:33.121Z,97049.91
2022-08-03T23:20:06.333Z,97058.97
2022-08-03T23:22:39.118Z,97051.03
2022-08-03T23:25:10.155Z,97053.22
2022-08-03T23:27:39.972Z,97045.19
2022-08-03T23:30:07.140Z,97047.31
2022-08-03T23:32:33.797Z,97051.53
2022-08-03T23:35:21.815Z,97049.41
2022-08-03T23:38:04.797Z,97046.19
2022-08-03T23:40:38.899Z,97043.56
2022-08-03T23:43:05.675Z,97045.69
2022-08-03T23:45:34.803Z,97039.22
2022-08-03T23:48:01.406Z,97044.25
2022-08-03T23:50:31.198Z,97029.75
2022-08-03T23:53:10.675Z,97035.91
2022-08-03T23:56:13.858Z,97039.81
2022-08-03T23:59:00.098Z,97038.81
